createdAt,value
2018-11-28T00:00:09.678Z,4.4
2018-11-28T00:01:09.686Z,4.33
2018-11-28T00:02:09.636Z,4.24
2018-11-28T00:03:09.626Z,4.26
2018-11-28T00:04:09.633Z,4.24
2018-11-28T00:05:09.630Z,4.32
2018-11-28T00:06:09.612Z,4.26
2018-11-28T00:07:09.575Z,4.29
2018-11-28T00:08:09.331Z,4.34
2018-11-28T00:09:09.535Z,4.37
2018-11-28T00:10:09.558Z,4.41
2018-11-28T00:11:09.512Z,4.42
2018-11-28T00:12:09.504Z,4.4
2018-11-28T00:13:09.507Z,4.4
2018-11-28T00:14:09.462Z,4.42
2018-11-28T00:15:09.479Z,4.4
2018-11-28T00:16:09.448Z,4.29
2018-11-28T00:17:09.468Z,4.26
2018-11-28T00:18:09.407Z,4.26
2018-11-28T00:19:09.393Z,4.26
2018-11-28T00:20:09.395Z,4.27
2018-11-28T00:21:09.396Z,4.27
2018-11-28T00:22:09.379Z,4.26
2018-11-28T00:23:09.333Z,4.26
2018-11-28T00:24:09.333Z,4.26
2018-11-28T00:25:09.340Z,4.23
2018-11-28T00:26:09.289Z,4.26
2018-11-28T00:27:09.316Z,4.22
2018-11-28T00:28:09.507Z,4.23
2018-11-28T00:29:09.275Z,4.29
2018-11-28T00:30:09.224Z,4.23
2018-11-28T00:31:09.251Z,4.26
2018-11-28T00:32:09.217Z,4.3
2018-11-28T00:33:09.219Z,4.23
2018-11-28T00:34:09.167Z,4.33
2018-11-28T00:35:09.160Z,4.27
2018-11-28T00:36:09.154Z,4.23
2018-11-28T00:37:09.158Z,4.24
2018-11-28T00:38:09.113Z,4.27
2018-11-28T00:39:09.125Z,4.15
2018-11-28T00:40:09.100Z,4.16
2018-11-28T00:41:09.099Z,4.2
2018-11-28T00:42:09.062Z,4.11
2018-11-28T00:43:09.068Z,4.11
2018-11-28T00:44:09.024Z,4.15
2018-11-28T00:45:09.043Z,4.09
2018-11-28T00:46:08.994Z,4.11
2018-11-28T00:47:09.013Z,4.12
2018-11-28T00:48:08.980Z,4.14
2018-11-28T00:49:08.989Z,4.08
2018-11-28T00:50:08.939Z,4.12
2018-11-28T00:51:08.923Z,4.12
2018-11-28T00:52:08.923Z,4.14
2018-11-28T00:53:08.924Z,4.06
2018-11-28T00:54:08.909Z,4.09
2018-11-28T00:55:08.873Z,4.04
2018-11-28T00:56:08.861Z,4.04
2018-11-28T00:57:08.833Z,4.08
2018-11-28T00:58:08.852Z,4.05
2018-11-28T00:59:08.846Z,4
2018-11-28T01:00:08.823Z,4.04
2018-11-28T01:01:08.781Z,4.02
2018-11-28T01:02:08.797Z,4.04
2018-11-28T01:03:08.746Z,4.04
2018-11-28T01:04:08.744Z,4.05
2018-11-28T01:05:08.750Z,4.09
2018-11-28T01:06:08.701Z,4.12
2018-11-28T01:07:08.686Z,4.14
2018-11-28T01:08:08.684Z,4.16
2018-11-28T01:09:08.690Z,4.06
2018-11-28T01:10:08.674Z,4.09
2018-11-28T01:11:08.631Z,4.14
2018-11-28T01:12:08.624Z,4.05
2018-11-28T01:13:08.598Z,4.12
2018-11-28T01:14:08.671Z,4.15
2018-11-28T01:15:08.572Z,4.14
2018-11-28T01:16:08.588Z,4.12
2018-11-28T01:17:08.539Z,4.09
2018-11-28T01:18:08.560Z,4.12
2018-11-28T01:19:08.509Z,4
2018-11-28T01:20:08.512Z,4.14
2018-11-28T01:21:08.478Z,4.12
2018-11-28T01:22:08.500Z,4.12
2018-11-28T01:23:08.480Z,4.12
2018-11-28T01:24:08.452Z,4.05
2018-11-28T01:25:08.431Z,4.14
2018-11-28T01:26:08.403Z,4.18
2018-11-28T01:27:08.422Z,4.14
2018-11-28T01:28:08.403Z,4.12
2018-11-28T01:29:08.363Z,4.18
2018-11-28T01:30:08.378Z,4.15
2018-11-28T01:31:08.338Z,4.24
2018-11-28T01:32:08.364Z,4.12
2018-11-28T01:33:08.300Z,4.18
2018-11-28T01:34:08.381Z,4.18
2018-11-28T01:35:08.270Z,4.15
2018-11-28T01:36:08.275Z,4.23
2018-11-28T01:37:08.244Z,4.18
2018-11-28T01:38:08.265Z,4.16
2018-11-28T01:39:08.244Z,4.24
2018-11-28T01:40:08.219Z,4.2
2018-11-28T01:41:08.184Z,4.29
2018-11-28T01:42:08.170Z,4.24
2018-11-28T01:43:09.667Z,4.29
2018-11-28T01:44:08.168Z,4.24
2018-11-28T01:45:08.166Z,4.29
2018-11-28T01:46:08.122Z,4.23
2018-11-28T01:47:08.135Z,4.22
2018-11-28T01:48:08.104Z,4.15
2018-11-28T01:49:08.106Z,4.09
2018-11-28T01:50:08.054Z,4.2
2018-11-28T01:51:08.075Z,4.11
2018-11-28T01:52:08.038Z,4.14
2018-11-28T01:53:08.049Z,4.11
2018-11-28T01:54:07.994Z,4.14
2018-11-28T01:55:08.008Z,4
2018-11-28T01:56:07.986Z,4.04
2018-11-28T01:57:07.948Z,4.04
2018-11-28T01:58:07.946Z,3.93
2018-11-28T01:59:07.956Z,4.02
2018-11-28T02:00:07.929Z,3.91
2018-11-28T02:01:07.925Z,3.93
2018-11-28T02:02:08.129Z,3.88
2018-11-28T02:03:07.933Z,3.78
2018-11-28T02:04:07.847Z,3.8
2018-11-28T02:05:07.867Z,3.73
2018-11-28T02:06:07.819Z,3.78
2018-11-28T02:07:07.832Z,3.7
2018-11-28T02:08:07.809Z,3.7
2018-11-28T02:09:07.770Z,3.66
2018-11-28T02:10:07.792Z,3.65
2018-11-28T02:11:07.771Z,3.68
2018-11-28T02:12:07.745Z,3.7
2018-11-28T02:13:07.719Z,3.62
2018-11-28T02:14:07.696Z,3.69
2018-11-28T02:15:07.710Z,3.58
2018-11-28T02:16:07.692Z,3.66
2018-11-28T02:17:07.689Z,3.66
2018-11-28T02:18:07.639Z,3.6
2018-11-28T02:19:07.649Z,3.6
2018-11-28T02:20:07.625Z,3.66
2018-11-28T02:21:07.592Z,3.57
2018-11-28T02:22:07.611Z,3.4
2018-11-28T02:23:07.568Z,3.36
2018-11-28T02:24:07.572Z,3.36
2018-11-28T02:25:07.532Z,3.36
2018-11-28T02:26:07.554Z,3.47
2018-11-28T02:27:07.283Z,3.54
2018-11-28T02:28:07.510Z,3.58
2018-11-28T02:29:07.471Z,3.55
2018-11-28T02:30:07.463Z,3.5
2018-11-28T02:31:07.477Z,3.47
2018-11-28T02:32:07.454Z,3.6
2018-11-28T02:33:07.702Z,3.62
2018-11-28T02:34:07.409Z,3.52
2018-11-28T02:35:07.411Z,3.55
2018-11-28T02:36:07.370Z,3.55
2018-11-28T02:37:07.386Z,3.58
2018-11-28T02:38:07.392Z,3.5
2018-11-28T02:39:07.358Z,3.48
2018-11-28T02:40:07.346Z,3.57
2018-11-28T02:41:07.323Z,3.52
2018-11-28T02:42:07.274Z,3.57
2018-11-28T02:43:07.277Z,3.52
2018-11-28T02:44:07.264Z,3.58
2018-11-28T02:45:07.271Z,3.62
2018-11-28T02:46:07.215Z,3.58
2018-11-28T02:47:07.234Z,3.61
2018-11-28T02:48:07.204Z,3.61
2018-11-28T02:49:07.213Z,3.61
2018-11-28T02:50:07.155Z,3.66
2018-11-28T02:51:07.174Z,3.65
2018-11-28T02:52:07.131Z,3.65
2018-11-28T02:53:07.144Z,3.6
2018-11-28T02:54:07.099Z,3.6
2018-11-28T02:55:07.123Z,3.57
2018-11-28T02:56:07.099Z,3.66
2018-11-28T02:57:07.088Z,3.65
2018-11-28T02:58:07.037Z,3.69
2018-11-28T02:59:07.040Z,3.68
2018-11-28T03:00:07.031Z,3.65
2018-11-28T03:01:07.033Z,3.68
2018-11-28T03:02:07.058Z,3.69
2018-11-28T03:03:06.971Z,3.69
2018-11-28T03:04:07.213Z,3.72
2018-11-28T03:05:06.935Z,3.62
2018-11-28T03:06:06.949Z,3.66
2018-11-28T03:07:06.911Z,3.72
2018-11-28T03:08:06.941Z,3.7
2018-11-28T03:09:06.872Z,3.69
2018-11-28T03:10:06.894Z,3.7
2018-11-28T03:11:06.845Z,3.68
2018-11-28T03:12:06.839Z,3.66
2018-11-28T03:13:06.845Z,3.66
2018-11-28T03:14:06.795Z,3.65
2018-11-28T03:15:06.782Z,3.52
2018-11-28T03:16:06.792Z,3.51
2018-11-28T03:17:06.804Z,3.52
2018-11-28T03:18:06.770Z,3.36
2018-11-28T03:19:06.725Z,3.43
2018-11-28T03:20:06.721Z,3.39
2018-11-28T03:21:06.692Z,3.36
2018-11-28T03:22:06.712Z,3.36
2018-11-28T03:23:06.687Z,3.39
2018-11-28T03:24:06.678Z,3.28
2018-11-28T03:25:06.637Z,3.35
2018-11-28T03:26:06.649Z,3.26
2018-11-28T03:27:06.613Z,3.32
2018-11-28T03:28:06.610Z,3.35
2018-11-28T03:29:06.576Z,3.4
2018-11-28T03:30:06.605Z,3.35
2018-11-28T03:31:06.599Z,3.35
2018-11-28T03:32:06.578Z,3.32
2018-11-28T03:33:06.570Z,3.31
2018-11-28T03:34:06.500Z,3.47
2018-11-28T03:35:06.510Z,3.24
2018-11-28T03:36:06.485Z,3.33
2018-11-28T03:37:06.544Z,3.36
2018-11-28T03:38:06.471Z,3.31
2018-11-28T03:39:06.431Z,3.29
2018-11-28T03:40:06.215Z,3.24
2018-11-28T03:41:06.402Z,3.33
2018-11-28T03:42:06.413Z,3.24
2018-11-28T03:43:06.356Z,3.29
2018-11-28T03:44:06.384Z,3.18
2018-11-28T03:45:06.345Z,3.06
2018-11-28T03:46:06.358Z,3.13
2018-11-28T03:47:06.323Z,3.03
2018-11-28T03:48:06.312Z,2.95
2018-11-28T03:49:06.277Z,2.89
2018-11-28T03:50:06.291Z,2.85
2018-11-28T03:51:06.239Z,2.82
2018-11-28T03:52:06.232Z,2.66
2018-11-28T03:53:06.203Z,2.59
2018-11-28T03:54:06.226Z,2.54
2018-11-28T03:55:06.188Z,2.46
2018-11-28T03:56:06.192Z,2.42
2018-11-28T03:57:06.156Z,2.34
2018-11-28T03:58:06.164Z,2.23
2018-11-28T03:59:06.165Z,2.24
2018-11-28T04:00:06.121Z,2.18
2018-11-28T04:01:06.084Z,2.07
2018-11-28T04:02:06.096Z,1.91
2018-11-28T04:03:06.053Z,1.81
2018-11-28T04:04:06.053Z,1.8
2018-11-28T04:05:06.050Z,1.76
2018-11-28T04:06:06.031Z,1.76
2018-11-28T04:07:06.008Z,1.68
2018-11-28T04:08:05.984Z,1.54
2018-11-28T04:09:05.955Z,1.51
2018-11-28T04:10:06.003Z,1.48
2018-11-28T04:11:05.925Z,1.41
2018-11-28T04:12:05.949Z,1.3
2018-11-28T04:13:05.883Z,1.33
2018-11-28T04:14:05.903Z,1.24
2018-11-28T04:15:05.851Z,1.29
2018-11-28T04:16:05.869Z,1.16
2018-11-28T04:17:05.821Z,1.09
2018-11-28T04:18:05.839Z,1.05
2018-11-28T04:19:05.821Z,1.08
2018-11-28T04:20:05.797Z,0.97
2018-11-28T04:21:05.762Z,0.94
2018-11-28T04:22:05.742Z,0.86
2018-11-28T04:23:05.762Z,0.84
2018-11-28T04:24:05.723Z,0.88
2018-11-28T04:25:05.722Z,0.88
2018-11-28T04:26:05.671Z,0.79
2018-11-28T04:27:05.687Z,0.78
2018-11-28T04:28:05.661Z,0.76
2018-11-28T04:29:05.631Z,0.72
2018-11-28T04:30:05.651Z,0.66
2018-11-28T04:31:05.587Z,0.76
2018-11-28T04:32:05.591Z,0.58
2018-11-28T04:33:05.590Z,0.62
2018-11-28T04:34:05.575Z,0.62
2018-11-28T04:35:05.553Z,0.49
2018-11-28T04:36:05.279Z,0.42
2018-11-28T04:37:05.494Z,0.5
2018-11-28T04:38:05.720Z,0.46
2018-11-28T04:39:05.492Z,0.42
2018-11-28T04:40:05.459Z,0.38
2018-11-28T04:41:05.465Z,0.41
2018-11-28T04:42:05.406Z,0.38
2018-11-28T04:43:05.422Z,0.32
2018-11-28T04:44:05.367Z,0.35
2018-11-28T04:45:05.383Z,0.29
2018-11-28T04:46:05.335Z,0.33
2018-11-28T04:47:05.351Z,0.15
2018-11-28T04:48:05.316Z,0.2
2018-11-28T04:49:05.318Z,0.13
2018-11-28T04:50:05.027Z,0.18
2018-11-28T04:51:05.256Z,0.08
2018-11-28T04:52:05.256Z,0.02
2018-11-28T04:53:05.245Z,0.07
2018-11-28T04:54:05.199Z,0.07
2018-11-28T04:55:05.213Z,0.1
2018-11-28T04:56:05.186Z,0.13
2018-11-28T04:57:05.187Z,0.02
2018-11-28T04:58:05.150Z,0.02
2018-11-28T04:59:05.173Z,0.08
2018-11-28T05:00:05.195Z,-0.01
2018-11-28T05:01:05.112Z,-0.04
2018-11-28T05:02:05.060Z,-0.05
2018-11-28T05:03:05.075Z,-0.04
2018-11-28T05:04:05.040Z,-0.01
2018-11-28T05:05:05.039Z,-0.05
2018-11-28T05:06:05.001Z,-0.01
2018-11-28T05:07:04.976Z,-0.04
2018-11-28T05:08:05.089Z,-0.03
2018-11-28T05:09:05.220Z,-0.05
2018-11-28T05:10:04.968Z,0.03
2018-11-28T05:11:04.910Z,0.04
2018-11-28T05:12:04.899Z,-0.04
2018-11-28T05:13:04.878Z,-0.04
2018-11-28T05:14:04.888Z,-0.07
2018-11-28T05:15:04.837Z,-0.1
2018-11-28T05:16:04.851Z,-0.21
2018-11-28T05:17:04.797Z,0.02
2018-11-28T05:18:04.872Z,-0.15
2018-11-28T05:19:04.768Z,-0.04
2018-11-28T05:20:04.760Z,-0.11
2018-11-28T05:21:04.761Z,-0.1
2018-11-28T05:22:04.711Z,-0.04
2018-11-28T05:23:04.699Z,-0.04
2018-11-28T05:24:04.689Z,-0.01
2018-11-28T05:25:04.693Z,-0.11
2018-11-28T05:26:04.671Z,-0.14
2018-11-28T05:27:04.633Z,-0.11
2018-11-28T05:28:04.620Z,-0.16
2018-11-28T05:29:04.591Z,-0.16
2018-11-28T05:30:04.603Z,-0.21
2018-11-28T05:31:04.553Z,-0.26
2018-11-28T05:32:04.570Z,-0.22
2018-11-28T05:33:04.522Z,-0.29
2018-11-28T05:34:04.531Z,-0.31
2018-11-28T05:35:04.478Z,-0.28
2018-11-28T05:36:04.482Z,-0.4
2018-11-28T05:37:04.444Z,-0.37
2018-11-28T05:38:04.464Z,-0.39
2018-11-28T05:39:04.442Z,-0.43
2018-11-28T05:40:04.660Z,-0.43
2018-11-28T05:41:04.375Z,-0.39
2018-11-28T05:42:04.360Z,-0.46
2018-11-28T05:43:04.370Z,-0.47
2018-11-28T05:44:04.341Z,-0.52
2018-11-28T05:45:04.307Z,-0.51
2018-11-28T05:46:04.319Z,-0.58
2018-11-28T05:47:04.282Z,-0.49
2018-11-28T05:48:04.283Z,-0.54
2018-11-28T05:49:04.232Z,-0.51
2018-11-28T05:50:04.258Z,-0.52
2018-11-28T05:51:04.198Z,-0.54
2018-11-28T05:52:04.198Z,-0.51
2018-11-28T05:53:04.167Z,-0.54
2018-11-28T05:54:04.188Z,-0.57
2018-11-28T05:55:04.281Z,-0.51
2018-11-28T05:56:04.128Z,-0.47
2018-11-28T05:57:04.107Z,-0.57
2018-11-28T05:58:04.074Z,-0.6
2018-11-28T05:59:04.084Z,-0.52
2018-11-28T06:00:04.900Z,-0.55
2018-11-28T06:01:04.057Z,-0.7
2018-11-28T06:02:04.004Z,-0.62
2018-11-28T06:03:04.014Z,-0.7
2018-11-28T06:04:03.970Z,-0.6
2018-11-28T06:05:03.986Z,-0.57
2018-11-28T06:06:03.694Z,-0.57
2018-11-28T06:07:03.949Z,-0.55
2018-11-28T06:08:03.910Z,-0.6
2018-11-28T06:09:03.910Z,-0.64
2018-11-28T06:10:03.865Z,-0.64
2018-11-28T06:11:03.880Z,-0.62
2018-11-28T06:12:03.900Z,-0.64
2018-11-28T06:13:03.829Z,-0.67
2018-11-28T06:14:03.792Z,-0.69
2018-11-28T06:15:03.805Z,-0.7
2018-11-28T06:16:03.770Z,-0.7
2018-11-28T06:17:03.768Z,-0.67
2018-11-28T06:18:03.731Z,-0.67
2018-11-28T06:19:03.729Z,-0.75
2018-11-28T06:20:03.683Z,-0.69
2018-11-28T06:21:03.705Z,-0.69
2018-11-28T06:22:03.654Z,-0.65
2018-11-28T06:23:03.661Z,-0.7
2018-11-28T06:24:03.628Z,-0.76
2018-11-28T06:25:03.629Z,-0.75
2018-11-28T06:26:03.583Z,-0.79
2018-11-28T06:27:03.323Z,-0.82
2018-11-28T06:28:03.561Z,-0.8
2018-11-28T06:29:03.557Z,-0.73
2018-11-28T06:30:03.543Z,-0.8
2018-11-28T06:31:03.489Z,-0.78
2018-11-28T06:32:03.485Z,-0.83
2018-11-28T06:33:03.454Z,-0.79
2018-11-28T06:34:03.470Z,-0.76
2018-11-28T06:35:03.420Z,-0.78
2018-11-28T06:36:03.413Z,-0.8
2018-11-28T06:37:03.414Z,-0.82
2018-11-28T06:38:03.360Z,-0.8
2018-11-28T06:39:03.383Z,-0.83
2018-11-28T06:40:03.342Z,-0.82
2018-11-28T06:41:03.351Z,-0.79
2018-11-28T06:42:03.293Z,-0.79
2018-11-28T06:43:03.279Z,-0.86
2018-11-28T06:44:03.275Z,-0.76
2018-11-28T06:45:03.279Z,-0.83
2018-11-28T06:46:03.256Z,-0.8
2018-11-28T06:47:03.205Z,-0.73
2018-11-28T06:48:02.957Z,-0.8
2018-11-28T06:49:03.169Z,-0.78
2018-11-28T06:50:03.188Z,-0.82
2018-11-28T06:51:03.133Z,-0.79
2018-11-28T06:52:03.147Z,-0.79
2018-11-28T06:53:03.095Z,-0.83
2018-11-28T06:54:02.863Z,-0.82
2018-11-28T06:55:03.056Z,-0.83
2018-11-28T06:56:03.061Z,-0.76
2018-11-28T06:57:03.023Z,-0.83
2018-11-28T06:58:03.039Z,-0.78
2018-11-28T06:59:03.016Z,-0.8
2018-11-28T07:00:02.986Z,-0.8
2018-11-28T07:01:02.948Z,-0.86
2018-11-28T07:02:02.968Z,-0.8
2018-11-28T07:03:02.921Z,-0.82
2018-11-28T07:04:02.909Z,-0.73
2018-11-28T07:05:02.878Z,-0.7
2018-11-28T07:06:02.906Z,-0.67
2018-11-28T07:07:02.846Z,-0.67
2018-11-28T07:08:02.872Z,-0.65
2018-11-28T07:09:02.806Z,-0.67
2018-11-28T07:10:02.825Z,-0.62
2018-11-28T07:11:02.784Z,-0.65
2018-11-28T07:12:02.775Z,-0.67
2018-11-28T07:13:02.734Z,-0.6
2018-11-28T07:14:03.014Z,-0.6
2018-11-28T07:15:02.704Z,-0.61
2018-11-28T07:16:02.699Z,-0.6
2018-11-28T07:17:02.697Z,-0.67
2018-11-28T07:18:02.678Z,-0.58
2018-11-28T07:19:02.632Z,-0.51
2018-11-28T07:20:02.376Z,-0.57
2018-11-28T07:21:02.608Z,-0.64
2018-11-28T07:22:03.521Z,-0.57
2018-11-28T07:23:02.601Z,-0.57
2018-11-28T07:24:02.576Z,-0.52
2018-11-28T07:25:02.521Z,-0.58
2018-11-28T07:26:02.537Z,-0.43
2018-11-28T07:27:02.492Z,-0.44
2018-11-28T07:28:02.480Z,-0.42
2018-11-28T07:29:02.483Z,-0.37
2018-11-28T07:30:02.434Z,-0.42
2018-11-28T07:31:02.419Z,-0.36
2018-11-28T07:32:02.414Z,-0.23
2018-11-28T07:33:02.419Z,-0.29
2018-11-28T07:34:02.456Z,-0.25
2018-11-28T07:35:02.349Z,-0.16
2018-11-28T07:36:02.102Z,-0.15
2018-11-28T07:37:02.306Z,-0.15
2018-11-28T07:38:02.338Z,-0.21
2018-11-28T07:39:02.288Z,-0.07
2018-11-28T07:40:02.291Z,-0.08
2018-11-28T07:41:02.242Z,0
2018-11-28T07:42:02.252Z,-0.04
2018-11-28T07:43:02.212Z,0.08
2018-11-28T07:44:02.207Z,0
2018-11-28T07:45:02.427Z,-0.05
2018-11-28T07:46:02.186Z,-0.01
2018-11-28T07:47:02.166Z,0.04
2018-11-28T07:48:02.137Z,0.14
2018-11-28T07:49:02.103Z,-0.01
2018-11-28T07:50:02.080Z,0.04
2018-11-28T07:51:02.090Z,0.07
2018-11-28T07:52:02.067Z,0.1
2018-11-28T07:53:02.025Z,0.18
2018-11-28T07:54:02.091Z,0.17
2018-11-28T07:55:01.995Z,0.2
2018-11-28T07:56:02.011Z,0.21
2018-11-28T07:57:01.960Z,0.18
2018-11-28T07:58:01.976Z,0.18
2018-11-28T07:59:01.924Z,0.24
2018-11-28T08:00:01.932Z,0.23
2018-11-28T08:01:01.887Z,0.32
2018-11-28T08:02:01.906Z,0.32
2018-11-28T08:03:01.887Z,0.33
2018-11-28T08:04:01.895Z,0.31
2018-11-28T08:05:01.845Z,0.32
2018-11-28T08:06:01.802Z,0.42
2018-11-28T08:07:01.828Z,0.44
2018-11-28T08:08:01.803Z,0.46
2018-11-28T08:09:01.799Z,0.47
2018-11-28T08:10:01.739Z,0.49
2018-11-28T08:11:01.750Z,0.6
2018-11-28T08:12:01.705Z,0.57
2018-11-28T08:13:01.717Z,0.55
2018-11-28T08:14:01.668Z,0.58
2018-11-28T08:15:01.688Z,0.58
2018-11-28T08:16:01.903Z,0.65
2018-11-28T08:17:01.676Z,0.6
2018-11-28T08:18:01.607Z,0.66
2018-11-28T08:19:01.613Z,0.68
2018-11-28T08:20:01.592Z,0.75
2018-11-28T08:21:01.549Z,0.8
2018-11-28T08:22:01.547Z,0.72
2018-11-28T08:23:01.544Z,0.79
2018-11-28T08:24:01.521Z,0.84
2018-11-28T08:25:01.522Z,0.86
2018-11-28T08:26:01.465Z,0.88
2018-11-28T08:27:01.488Z,0.86
2018-11-28T08:28:01.729Z,0.8
2018-11-28T08:29:01.453Z,0.9
2018-11-28T08:30:01.428Z,1.02
2018-11-28T08:31:01.416Z,1.02
2018-11-28T08:32:01.442Z,1.12
2018-11-28T08:33:01.382Z,1.11
2018-11-28T08:34:01.334Z,1.14
2018-11-28T08:35:01.326Z,1.11
2018-11-28T08:36:01.313Z,1.12
2018-11-28T08:37:01.320Z,1.29
2018-11-28T08:38:01.301Z,1.27
2018-11-28T08:39:01.775Z,1.29
2018-11-28T08:40:01.247Z,1.34
2018-11-28T08:41:01.214Z,1.3
2018-11-28T08:42:01.245Z,1.42
2018-11-28T08:43:00.960Z,1.24
2018-11-28T08:44:01.177Z,1.3
2018-11-28T08:45:01.181Z,1.36
2018-11-28T08:46:01.133Z,1.37
2018-11-28T08:47:01.164Z,1.44
2018-11-28T08:48:01.117Z,1.4
2018-11-28T08:49:01.119Z,1.47
2018-11-28T08:50:01.336Z,1.5
2018-11-28T08:51:01.059Z,1.48
2018-11-28T08:52:01.048Z,1.54
2018-11-28T08:53:01.051Z,1.42
2018-11-28T08:54:01.059Z,1.58
2018-11-28T08:55:00.990Z,1.58
2018-11-28T08:56:01.017Z,1.59
2018-11-28T08:57:01.821Z,1.63
2018-11-28T08:58:00.949Z,1.7
2018-11-28T08:59:00.984Z,1.66
2018-11-28T09:00:00.903Z,1.7
2018-11-28T09:01:00.919Z,1.7
2018-11-28T09:02:00.871Z,1.7
2018-11-28T09:03:00.889Z,1.72
2018-11-28T09:04:00.855Z,1.81
2018-11-28T09:05:00.852Z,1.79
2018-11-28T09:06:00.803Z,1.77
2018-11-28T09:07:00.798Z,1.79
2018-11-28T09:08:00.790Z,1.86
2018-11-28T09:09:00.787Z,1.81
2018-11-28T09:10:00.739Z,1.87
2018-11-28T09:11:00.754Z,1.88
2018-11-28T09:12:00.727Z,1.98
2018-11-28T09:13:06.539Z,1.95
2018-11-28T09:14:06.847Z,2
2018-11-28T09:15:00.687Z,2.06
2018-11-28T09:16:00.640Z,2.07
2018-11-28T09:17:00.660Z,2.1
2018-11-28T09:18:00.653Z,2.16
2018-11-28T09:19:00.880Z,2.1
2018-11-28T09:20:00.593Z,2.07
2018-11-28T09:21:00.594Z,2.1
2018-11-28T09:22:00.544Z,2.23
2018-11-28T09:23:00.595Z,2.25
2018-11-28T09:24:00.525Z,2.21
2018-11-28T09:25:00.533Z,2.28
2018-11-28T09:26:00.516Z,2.38
2018-11-28T09:27:00.467Z,2.41
2018-11-28T09:28:00.469Z,2.39
2018-11-28T09:29:00.438Z,2.41
2018-11-28T09:30:00.452Z,2.39
2018-11-28T09:31:00.475Z,2.49
2018-11-28T09:32:00.420Z,2.46
2018-11-28T09:33:00.382Z,2.49
2018-11-28T09:34:00.390Z,2.46
2018-11-28T09:35:00.349Z,2.59
2018-11-28T09:36:00.337Z,2.57
2018-11-28T09:37:00.342Z,2.59
2018-11-28T09:38:00.289Z,2.6
2018-11-28T09:39:00.279Z,2.63
2018-11-28T09:40:00.274Z,2.66
2018-11-28T09:41:00.284Z,2.72
2018-11-28T09:42:00.264Z,2.74
2018-11-28T09:43:00.215Z,2.69
2018-11-28T09:44:00.213Z,2.72
2018-11-28T09:45:00.181Z,2.69
2018-11-28T09:46:00.202Z,2.69
2018-11-28T09:47:00.156Z,2.74
2018-11-28T09:48:00.164Z,2.78
2018-11-28T09:49:00.123Z,2.79
2018-11-28T09:50:00.388Z,2.82
2018-11-28T09:51:00.086Z,2.82
2018-11-28T09:52:00.090Z,2.84
2018-11-28T09:53:00.070Z,2.89
2018-11-28T09:54:00.073Z,2.9
2018-11-28T09:55:00.053Z,2.92
2018-11-28T09:56:00.032Z,3.03
2018-11-28T09:56:59.996Z,3.03
2018-11-28T09:57:59.991Z,3.1
2018-11-28T09:58:59.994Z,3.06
2018-11-28T09:59:59.967Z,3.08
2018-11-28T10:00:59.936Z,3.23
2018-11-28T10:01:59.949Z,3.2
2018-11-28T10:02:59.666Z,3.18
2018-11-28T10:03:59.918Z,3.23
2018-11-28T10:05:05.385Z,3.23
2018-11-28T10:05:59.957Z,3.24
2018-11-28T10:06:59.835Z,3.29
2018-11-28T10:07:59.880Z,3.36
2018-11-28T10:08:59.813Z,3.28
2018-11-28T10:09:59.824Z,3.28
2018-11-28T10:10:59.808Z,3.33
2018-11-28T10:11:59.782Z,3.36
2018-11-28T10:12:59.753Z,3.36
2018-11-28T10:13:59.730Z,3.32
2018-11-28T10:14:59.746Z,3.31
2018-11-28T10:16:00.528Z,3.43
2018-11-28T10:17:00.695Z,3.33
2018-11-28T10:17:59.685Z,3.39
2018-11-28T10:18:59.686Z,3.45
2018-11-28T10:19:59.646Z,3.47
2018-11-28T10:20:59.931Z,3.45
2018-11-28T10:21:59.608Z,3.51
2018-11-28T10:22:59.633Z,3.58
2018-11-28T10:23:59.628Z,3.52
2018-11-28T10:24:59.599Z,3.61
2018-11-28T10:25:59.560Z,3.79
2018-11-28T10:26:59.568Z,3.8
2018-11-28T10:27:59.542Z,3.84
2018-11-28T10:28:59.504Z,3.88
2018-11-28T10:29:59.491Z,3.96
2018-11-28T10:30:59.507Z,4.02
2018-11-28T10:31:59.489Z,4.06
2018-11-28T10:32:59.483Z,4.08
2018-11-28T10:33:59.440Z,4.12
2018-11-28T10:34:59.447Z,4.14
2018-11-28T10:35:59.404Z,4.09
2018-11-28T10:36:59.420Z,4.16
2018-11-28T10:37:59.375Z,4.16
2018-11-28T10:38:59.386Z,4.18
2018-11-28T10:39:59.370Z,4.09
2018-11-28T10:40:59.324Z,4.2
2018-11-28T10:41:59.348Z,4.08
2018-11-28T10:42:59.328Z,4.16
2018-11-28T10:43:59.355Z,4.15
2018-11-28T10:44:59.270Z,4.2
2018-11-28T10:45:59.254Z,4.23
2018-11-28T10:46:59.269Z,4.16
2018-11-28T10:47:59.242Z,4.27
2018-11-28T10:48:59.249Z,4.2
2018-11-28T10:49:59.196Z,4.23
2018-11-28T10:50:59.208Z,4.36
2018-11-28T10:52:00.291Z,4.4
2018-11-28T10:52:59.155Z,4.37
2018-11-28T10:53:59.212Z,4.5
2018-11-28T10:54:59.125Z,4.51
2018-11-28T10:55:59.130Z,4.51
2018-11-28T10:56:59.098Z,4.63
2018-11-28T10:57:59.115Z,4.73
2018-11-28T10:58:59.100Z,4.67
2018-11-28T10:59:59.073Z,4.75
2018-11-28T11:00:59.036Z,4.62
2018-11-28T11:01:59.024Z,4.62
2018-11-28T11:02:59.034Z,4.67
2018-11-28T11:03:59.013Z,4.66
2018-11-28T11:04:59.142Z,4.59
2018-11-28T11:05:58.962Z,4.62
2018-11-28T11:06:58.976Z,4.59
2018-11-28T11:07:58.934Z,4.6
2018-11-28T11:08:58.966Z,4.66
2018-11-28T11:09:58.910Z,4.69
2018-11-28T11:10:58.935Z,4.7
2018-11-28T11:11:58.949Z,4.67
2018-11-28T11:12:58.897Z,4.72
2018-11-28T11:13:58.852Z,4.78
2018-11-28T11:14:58.840Z,4.67
2018-11-28T11:15:58.840Z,4.69
2018-11-28T11:16:58.849Z,4.73
2018-11-28T11:18:10.158Z,4.75
2018-11-28T11:18:58.807Z,4.7
2018-11-28T11:19:58.782Z,4.7
2018-11-28T11:20:58.793Z,4.67
2018-11-28T11:21:58.740Z,4.75
2018-11-28T11:22:58.756Z,4.75
2018-11-28T11:23:58.958Z,4.75
2018-11-28T11:24:58.729Z,4.67
2018-11-28T11:25:58.680Z,4.73
2018-11-28T11:26:58.698Z,4.75
2018-11-28T11:27:58.670Z,4.84
2018-11-28T11:28:58.674Z,4.8
2018-11-28T11:29:58.734Z,4.84
2018-11-28T11:30:58.617Z,4.73
2018-11-28T11:31:58.608Z,4.69
2018-11-28T11:32:58.614Z,4.75
2018-11-28T11:33:58.601Z,4.8
2018-11-28T11:34:58.585Z,4.75
2018-11-28T11:35:58.552Z,4.7
2018-11-28T11:36:58.526Z,4.66
2018-11-28T11:37:58.544Z,4.69
2018-11-28T11:38:58.500Z,4.72
2018-11-28T11:39:59.711Z,4.82
2018-11-28T11:40:58.474Z,4.78
2018-11-28T11:41:58.486Z,4.89
2018-11-28T11:42:58.458Z,4.84
2018-11-28T11:43:58.444Z,4.84
2018-11-28T11:44:58.499Z,4.78
2018-11-28T11:45:58.398Z,4.78
2018-11-28T11:46:58.390Z,4.89
2018-11-28T11:47:58.385Z,4.86
2018-11-28T11:48:58.392Z,4.89
2018-11-28T11:49:58.376Z,4.92
2018-11-28T11:50:58.339Z,4.96
2018-11-28T11:51:58.329Z,4.96
2018-11-28T11:52:58.299Z,4.91
2018-11-28T11:53:58.318Z,4.99
2018-11-28T11:54:58.533Z,4.91
2018-11-28T11:55:58.293Z,4.94
2018-11-28T11:56:58.242Z,4.91
2018-11-28T11:57:58.376Z,4.92
2018-11-28T11:58:58.217Z,4.96
2018-11-28T11:59:58.219Z,5.03
2018-11-28T12:00:58.309Z,5
2018-11-28T12:01:59.648Z,5.06
2018-11-28T12:02:58.191Z,5
2018-11-28T12:03:58.340Z,5.04
2018-11-28T12:04:58.133Z,5.07
2018-11-28T12:05:58.131Z,5.06
2018-11-28T12:06:58.136Z,5.12
2018-11-28T12:07:58.113Z,5
2018-11-28T12:08:58.075Z,5
2018-11-28T12:09:58.109Z,5.09
2018-11-28T12:10:58.071Z,5.06
2018-11-28T12:11:58.069Z,5.04
2018-11-28T12:12:58.024Z,5.04
2018-11-28T12:13:58.039Z,5
2018-11-28T12:14:57.989Z,5.06
2018-11-28T12:15:58.039Z,5.04
2018-11-28T12:16:57.967Z,5
2018-11-28T12:17:57.991Z,4.96
2018-11-28T12:18:57.972Z,4.96
2018-11-28T12:19:57.941Z,4.99
2018-11-28T12:20:57.913Z,5.06
2018-11-28T12:21:57.904Z,5.02
2018-11-28T12:22:57.956Z,5.02
2018-11-28T12:23:57.883Z,4.94
2018-11-28T12:24:57.640Z,4.97
2018-11-28T12:25:57.832Z,4.96
2018-11-28T12:26:57.856Z,4.92
2018-11-28T12:27:57.810Z,4.94
2018-11-28T12:28:57.826Z,4.97
2018-11-28T12:29:57.779Z,4.94
2018-11-28T12:30:57.810Z,5.02
2018-11-28T12:31:57.770Z,5.03
2018-11-28T12:32:57.772Z,5.02
2018-11-28T12:33:57.736Z,4.99
2018-11-28T12:34:57.792Z,5.06
2018-11-28T12:35:57.718Z,5.04
2018-11-28T12:36:57.684Z,5.02
2018-11-28T12:37:57.667Z,5.02
2018-11-28T12:38:57.693Z,5.15
2018-11-28T12:39:57.661Z,5.09
2018-11-28T12:40:57.660Z,5.22
2018-11-28T12:41:57.614Z,5.13
2018-11-28T12:42:57.624Z,5.13
2018-11-28T12:43:57.584Z,5.18
2018-11-28T12:44:57.608Z,5.02
2018-11-28T12:45:57.556Z,5.06
2018-11-28T12:46:57.576Z,5.02
2018-11-28T12:47:57.547Z,5.03
2018-11-28T12:48:57.553Z,5.02
2018-11-28T12:49:57.503Z,5.02
2018-11-28T12:50:57.498Z,5.02
2018-11-28T12:51:57.487Z,4.97
2018-11-28T12:52:57.499Z,4.97
2018-11-28T12:53:57.480Z,4.99
2018-11-28T12:54:57.442Z,4.92
2018-11-28T12:55:57.431Z,4.94
2018-11-28T12:56:57.403Z,4.97
2018-11-28T12:57:57.456Z,4.97
2018-11-28T12:58:57.380Z,5.02
2018-11-28T12:59:57.380Z,4.96
2018-11-28T13:00:57.394Z,5.02
2018-11-28T13:01:57.332Z,4.99
2018-11-28T13:02:57.352Z,4.92
2018-11-28T13:03:57.315Z,4.99
2018-11-28T13:05:02.262Z,4.96
2018-11-28T13:05:57.275Z,4.89
2018-11-28T13:06:57.283Z,4.94
2018-11-28T13:07:57.271Z,4.99
2018-11-28T13:08:57.266Z,4.97
2018-11-28T13:09:57.252Z,4.94
2018-11-28T13:10:57.214Z,4.94
2018-11-28T13:12:02.748Z,4.97
2018-11-28T13:12:57.233Z,4.99
2018-11-28T13:13:57.195Z,4.94
2018-11-28T13:14:57.193Z,4.99
2018-11-28T13:15:57.171Z,4.94
2018-11-28T13:16:57.121Z,4.91